sensor_id;sensor_type;location;lat;lon;timestamp;temperature;humidity
41944;DHT22;27636;52.610;13.244;2023-12-07T00:00:52;1.10;99.90
41944;DHT22;27636;52.610;13.244;2023-12-07T00:05:58;1.10;99.90
41944;DHT22;27636;52.610;13.244;2023-12-07T00:11:02;1.10;99.90
41944;DHT22;27636;52.610;13.244;2023-12-07T00:16:06;1.00;99.90
41944;DHT22;27636;52.610;13.244;2023-12-07T00:21:12;1.00;99.90
41944;DHT22;27636;52.610;13.244;2023-12-07T00:26:15;1.00;99.90
41944;DHT22;27636;52.610;13.244;2023-12-07T00:31:19;1.00;99.90
41944;DHT22;27636;52.610;13.244;2023-12-07T00:36:25;1.00;99.90
41944;DHT22;27636;52.610;13.244;2023-12-07T00:41:29;1.00;99.90
41944;DHT22;27636;52.610;13.244;2023-12-07T00:46:33;1.00;99.90
41944;DHT22;27636;52.610;13.244;2023-12-07T00:51:38;1.00;99.90
41944;DHT22;27636;52.610;13.244;2023-12-07T00:56:43;1.00;99.90
41944;DHT22;27636;52.610;13.244;2023-12-07T01:01:46;1.00;99.90
41944;DHT22;27636;52.610;13.244;2023-12-07T01:06:52;0.90;99.90
41944;DHT22;27636;52.610;13.244;2023-12-07T01:11:56;1.00;99.90
41944;DHT22;27636;52.610;13.244;2023-12-07T01:17:02;0.90;99.90
41944;DHT22;27636;52.610;13.244;2023-12-07T01:22:07;1.00;99.90
41944;DHT22;27636;52.610;13.244;2023-12-07T01:27:11;1.00;99.90
41944;DHT22;27636;52.610;13.244;2023-12-07T01:32:15;1.00;99.90
41944;DHT22;27636;52.610;13.244;2023-12-07T01:37:20;1.00;99.90
41944;DHT22;27636;52.610;13.244;2023-12-07T01:42:24;1.00;99.90
41944;DHT22;27636;52.610;13.244;2023-12-07T01:47:28;1.30;99.90
41944;DHT22;27636;52.610;13.244;2023-12-07T01:52:35;1.30;99.90
41944;DHT22;27636;52.610;13.244;2023-12-07T01:57:41;1.10;99.90
41944;DHT22;27636;52.610;13.244;2023-12-07T02:02:46;1.10;99.90
41944;DHT22;27636;52.610;13.244;2023-12-07T02:07:52;1.10;99.90
41944;DHT22;27636;52.610;13.244;2023-12-07T02:12:55;1.00;99.90
41944;DHT22;27636;52.610;13.244;2023-12-07T02:18:04;1.10;99.90
41944;DHT22;27636;52.610;13.244;2023-12-07T02:23:14;1.20;99.90
41944;DHT22;27636;52.610;13.244;2023-12-07T02:28:24;1.20;99.90
41944;DHT22;27636;52.610;13.244;2023-12-07T02:33:28;1.20;99.90
41944;DHT22;27636;52.610;13.244;2023-12-07T02:38:32;1.10;99.90
41944;DHT22;27636;52.610;13.244;2023-12-07T02:43:37;1.20;99.90
41944;DHT22;27636;52.610;13.244;2023-12-07T02:48:41;1.10;99.90
41944;DHT22;27636;52.610;13.244;2023-12-07T02:53:46;1.10;99.90
41944;DHT22;27636;52.610;13.244;2023-12-07T02:58:51;1.00;99.90
41944;DHT22;27636;52.610;13.244;2023-12-07T03:03:54;1.00;99.90
41944;DHT22;27636;52.610;13.244;2023-12-07T03:08:58;1.10;99.90
41944;DHT22;27636;52.610;13.244;2023-12-07T03:14:03;1.10;99.90
41944;DHT22;27636;52.610;13.244;2023-12-07T03:19:07;1.00;99.90
41944;DHT22;27636;52.610;13.244;2023-12-07T03:24:12;1.00;99.90
41944;DHT22;27636;52.610;13.244;2023-12-07T03:29:17;1.10;99.90
41944;DHT22;27636;52.610;13.244;2023-12-07T03:34:22;1.10;99.90
41944;DHT22;27636;52.610;13.244;2023-12-07T03:39:25;1.10;99.90
41944;DHT22;27636;52.610;13.244;2023-12-07T03:44:32;1.10;99.90
41944;DHT22;27636;52.610;13.244;2023-12-07T03:49:35;1.10;99.90
41944;DHT22;27636;52.610;13.244;2023-12-07T03:54:39;1.20;99.90
41944;DHT22;27636;52.610;13.244;2023-12-07T03:59:44;1.10;99.90
41944;DHT22;27636;52.610;13.244;2023-12-07T04:04:50;1.10;99.90
41944;DHT22;27636;52.610;13.244;2023-12-07T04:09:54;1.00;99.90
41944;DHT22;27636;52.610;13.244;2023-12-07T04:14:59;1.00;99.90
41944;DHT22;27636;52.610;13.244;2023-12-07T04:20:04;1.00;99.90
41944;DHT22;27636;52.610;13.244;2023-12-07T04:25:08;1.10;99.90
41944;DHT22;27636;52.610;13.244;2023-12-07T04:30:14;1.10;99.90
41944;DHT22;27636;52.610;13.244;2023-12-07T04:35:18;1.10;99.90
41944;DHT22;27636;52.610;13.244;2023-12-07T04:40:23;1.10;99.90
41944;DHT22;27636;52.610;13.244;2023-12-07T04:45:29;1.10;99.90
41944;DHT22;27636;52.610;13.244;2023-12-07T04:50:33;1.10;99.90
41944;DHT22;27636;52.610;13.244;2023-12-07T04:55:37;1.10;99.90
41944;DHT22;27636;52.610;13.244;2023-12-07T05:00:42;1.10;99.90
41944;DHT22;27636;52.610;13.244;2023-12-07T05:05:46;1.10;99.90
41944;DHT22;27636;52.610;13.244;2023-12-07T05:10:50;1.00;99.90
41944;DHT22;27636;52.610;13.244;2023-12-07T05:15:56;1.00;99.90
41944;DHT22;27636;52.610;13.244;2023-12-07T05:21:01;1.00;99.90
41944;DHT22;27636;52.610;13.244;2023-12-07T05:26:05;1.10;99.90
41944;DHT22;27636;52.610;13.244;2023-12-07T05:31:15;1.10;99.90
41944;DHT22;27636;52.610;13.244;2023-12-07T05:36:19;1.00;99.90
41944;DHT22;27636;52.610;13.244;2023-12-07T05:41:24;1.00;99.90
41944;DHT22;27636;52.610;13.244;2023-12-07T05:46:31;1.10;99.90
41944;DHT22;27636;52.610;13.244;2023-12-07T05:51:35;1.10;99.90
41944;DHT22;27636;52.610;13.244;2023-12-07T05:56:39;1.10;99.90
41944;DHT22;27636;52.610;13.244;2023-12-07T06:01:45;1.10;99.90
41944;DHT22;27636;52.610;13.244;2023-12-07T06:06:49;1.00;99.90
41944;DHT22;27636;52.610;13.244;2023-12-07T06:11:54;1.00;99.90
41944;DHT22;27636;52.610;13.244;2023-12-07T06:16:59;1.00;99.90
41944;DHT22;27636;52.610;13.244;2023-12-07T06:22:03;1.00;99.90
41944;DHT22;27636;52.610;13.244;2023-12-07T06:27:07;1.00;99.90
41944;DHT22;27636;52.610;13.244;2023-12-07T06:32:14;1.00;99.90
41944;DHT22;27636;52.610;13.244;2023-12-07T06:37:19;1.00;99.90
41944;DHT22;27636;52.610;13.244;2023-12-07T06:42:23;1.10;99.90
41944;DHT22;27636;52.610;13.244;2023-12-07T06:47:29;1.10;99.90
41944;DHT22;27636;52.610;13.244;2023-12-07T06:52:34;1.10;99.90
41944;DHT22;27636;52.610;13.244;2023-12-07T06:57:39;1.10;99.90
41944;DHT22;27636;52.610;13.244;2023-12-07T07:02:44;1.00;99.90
41944;DHT22;27636;52.610;13.244;2023-12-07T07:07:48;1.10;99.90
41944;DHT22;27636;52.610;13.244;2023-12-07T07:12:51;1.10;99.90
41944;DHT22;27636;52.610;13.244;2023-12-07T07:17:57;1.10;99.90
41944;DHT22;27636;52.610;13.244;2023-12-07T07:23:01;1.20;99.90
41944;DHT22;27636;52.610;13.244;2023-12-07T07:28:04;1.10;99.90
41944;DHT22;27636;52.610;13.244;2023-12-07T07:33:11;1.20;99.90
41944;DHT22;27636;52.610;13.244;2023-12-07T07:38:15;1.20;99.90
41944;DHT22;27636;52.610;13.244;2023-12-07T07:43:19;1.20;99.90
41944;DHT22;27636;52.610;13.244;2023-12-07T07:48:24;1.20;99.90
41944;DHT22;27636;52.610;13.244;2023-12-07T07:53:29;1.20;99.90
41944;DHT22;27636;52.610;13.244;2023-12-07T07:58:34;1.40;99.90
41944;DHT22;27636;52.610;13.244;2023-12-07T08:03:40;1.30;99.90
41944;DHT22;27636;52.610;13.244;2023-12-07T08:08:44;1.50;99.90
41944;DHT22;27636;52.610;13.244;2023-12-07T08:13:48;1.40;99.90
41944;DHT22;27636;52.610;13.244;2023-12-07T08:18:55;1.50;99.90
41944;DHT22;27636;52.610;13.244;2023-12-07T08:23:59;1.40;99.90
41944;DHT22;27636;52.610;13.244;2023-12-07T08:29:03;1.50;99.90
41944;DHT22;27636;52.610;13.244;2023-12-07T08:34:12;1.60;99.90
41944;DHT22;27636;52.610;13.244;2023-12-07T08:39:16;1.60;99.90
41944;DHT22;27636;52.610;13.244;2023-12-07T08:44:20;1.70;99.90
41944;DHT22;27636;52.610;13.244;2023-12-07T08:49:26;1.60;99.90
41944;DHT22;27636;52.610;13.244;2023-12-07T08:54:30;1.70;99.90
41944;DHT22;27636;52.610;13.244;2023-12-07T08:59:33;1.80;99.90
41944;DHT22;27636;52.610;13.244;2023-12-07T09:04:39;1.80;99.90
41944;DHT22;27636;52.610;13.244;2023-12-07T09:09:43;1.80;99.90
41944;DHT22;27636;52.610;13.244;2023-12-07T09:14:50;1.90;99.90
41944;DHT22;27636;52.610;13.244;2023-12-07T09:19:55;1.80;99.90
41944;DHT22;27636;52.610;13.244;2023-12-07T09:24:59;1.80;99.90
41944;DHT22;27636;52.610;13.244;2023-12-07T09:30:04;2.00;99.90
41944;DHT22;27636;52.610;13.244;2023-12-07T09:35:10;1.90;99.90
41944;DHT22;27636;52.610;13.244;2023-12-07T09:40:24;1.90;99.90
41944;DHT22;27636;52.610;13.244;2023-12-07T09:45:29;2.00;99.90
41944;DHT22;27636;52.610;13.244;2023-12-07T09:50:36;2.00;99.90
41944;DHT22;27636;52.610;13.244;2023-12-07T09:55:42;1.90;99.90
41944;DHT22;27636;52.610;13.244;2023-12-07T10:00:48;2.10;99.90
41944;DHT22;27636;52.610;13.244;2023-12-07T10:05:58;2.10;99.90
41944;DHT22;27636;52.610;13.244;2023-12-07T10:11:04;2.00;99.90
41944;DHT22;27636;52.610;13.244;2023-12-07T10:16:10;2.20;99.90
41944;DHT22;27636;52.610;13.244;2023-12-07T10:21:16;2.20;99.90
41944;DHT22;27636;52.610;13.244;2023-12-07T10:26:20;2.40;99.90
41944;DHT22;27636;52.610;13.244;2023-12-07T10:31:26;2.30;99.90
41944;DHT22;27636;52.610;13.244;2023-12-07T10:36:31;2.20;99.90
41944;DHT22;27636;52.610;13.244;2023-12-07T10:41:37;2.30;99.90
41944;DHT22;27636;52.610;13.244;2023-12-07T10:46:43;2.20;99.90
41944;DHT22;27636;52.610;13.244;2023-12-07T10:51:58;2.20;99.90
41944;DHT22;27636;52.610;13.244;2023-12-07T10:57:04;2.30;99.90
41944;DHT22;27636;52.610;13.244;2023-12-07T11:02:12;2.40;99.90
41944;DHT22;27636;52.610;13.244;2023-12-07T11:07:22;2.30;99.90
41944;DHT22;27636;52.610;13.244;2023-12-07T11:12:33;2.30;99.90
41944;DHT22;27636;52.610;13.244;2023-12-07T11:17:50;2.40;99.90
41944;DHT22;27636;52.610;13.244;2023-12-07T11:22:57;2.30;99.90
41944;DHT22;27636;52.610;13.244;2023-12-07T11:28:01;2.30;99.90
41944;DHT22;27636;52.610;13.244;2023-12-07T11:33:07;2.30;99.90
41944;DHT22;27636;52.610;13.244;2023-12-07T11:38:12;2.20;99.90
41944;DHT22;27636;52.610;13.244;2023-12-07T11:43:19;2.20;99.90
41944;DHT22;27636;52.610;13.244;2023-12-07T11:48:33;2.30;99.90
41944;DHT22;27636;52.610;13.244;2023-12-07T11:53:39;2.20;99.90
41944;DHT22;27636;52.610;13.244;2023-12-07T11:58:44;2.10;99.90
41944;DHT22;27636;52.610;13.244;2023-12-07T12:03:48;2.10;99.90
41944;DHT22;27636;52.610;13.244;2023-12-07T12:08:55;2.30;99.90
41944;DHT22;27636;52.610;13.244;2023-12-07T12:14:00;2.20;99.90
41944;DHT22;27636;52.610;13.244;2023-12-07T12:19:04;2.10;99.90
41944;DHT22;27636;52.610;13.244;2023-12-07T12:24:10;2.20;99.90
41944;DHT22;27636;52.610;13.244;2023-12-07T12:29:15;2.30;99.90
41944;DHT22;27636;52.610;13.244;2023-12-07T12:34:33;2.40;99.90
41944;DHT22;27636;52.610;13.244;2023-12-07T12:39:40;2.20;99.90
41944;DHT22;27636;52.610;13.244;2023-12-07T12:44:44;2.30;99.90
41944;DHT22;27636;52.610;13.244;2023-12-07T12:49:49;2.30;99.90
41944;DHT22;27636;52.610;13.244;2023-12-07T12:54:56;2.20;99.90
41944;DHT22;27636;52.610;13.244;2023-12-07T13:00:01;2.20;99.90
41944;DHT22;27636;52.610;13.244;2023-12-07T13:05:06;2.30;99.90
41944;DHT22;27636;52.610;13.244;2023-12-07T13:10:12;2.10;99.90
41944;DHT22;27636;52.610;13.244;2023-12-07T13:15:16;2.10;99.90
41944;DHT22;27636;52.610;13.244;2023-12-07T13:20:20;2.10;99.90
41944;DHT22;27636;52.610;13.244;2023-12-07T13:25:26;2.00;99.90
41944;DHT22;27636;52.610;13.244;2023-12-07T13:30:29;2.00;99.90
41944;DHT22;27636;52.610;13.244;2023-12-07T13:35:37;2.00;99.90
41944;DHT22;27636;52.610;13.244;2023-12-07T13:40:43;1.90;99.90
41944;DHT22;27636;52.610;13.244;2023-12-07T13:45:47;1.90;99.90
41944;DHT22;27636;52.610;13.244;2023-12-07T13:50:50;1.90;99.90
41944;DHT22;27636;52.610;13.244;2023-12-07T13:55:56;1.90;99.90
41944;DHT22;27636;52.610;13.244;2023-12-07T14:00:59;1.90;99.90
41944;DHT22;27636;52.610;13.244;2023-12-07T14:06:05;1.90;99.90
41944;DHT22;27636;52.610;13.244;2023-12-07T14:11:22;1.90;99.90
41944;DHT22;27636;52.610;13.244;2023-12-07T14:16:26;1.90;99.90
41944;DHT22;27636;52.610;13.244;2023-12-07T14:21:49;1.80;99.90
41944;DHT22;27636;52.610;13.244;2023-12-07T14:26:59;1.80;99.90
41944;DHT22;27636;52.610;13.244;2023-12-07T14:32:04;1.80;99.90
41944;DHT22;27636;52.610;13.244;2023-12-07T14:37:09;1.90;99.90
41944;DHT22;27636;52.610;13.244;2023-12-07T14:42:14;1.80;99.90
41944;DHT22;27636;52.610;13.244;2023-12-07T14:47:19;1.90;99.90
41944;DHT22;27636;52.610;13.244;2023-12-07T14:52:23;1.70;99.90
41944;DHT22;27636;52.610;13.244;2023-12-07T14:57:32;1.80;99.90
41944;DHT22;27636;52.610;13.244;2023-12-07T15:02:37;1.70;99.90
41944;DHT22;27636;52.610;13.244;2023-12-07T15:07:41;1.70;99.90
41944;DHT22;27636;52.610;13.244;2023-12-07T15:12:47;1.70;99.90
41944;DHT22;27636;52.610;13.244;2023-12-07T15:17:50;1.70;99.90
41944;DHT22;27636;52.610;13.244;2023-12-07T15:22:55;1.60;99.90
41944;DHT22;27636;52.610;13.244;2023-12-07T15:28:00;1.70;99.90
41944;DHT22;27636;52.610;13.244;2023-12-07T15:33:04;1.70;99.90
41944;DHT22;27636;52.610;13.244;2023-12-07T15:38:08;1.60;99.90
41944;DHT22;27636;52.610;13.244;2023-12-07T15:43:16;1.60;99.90
41944;DHT22;27636;52.610;13.244;2023-12-07T15:48:20;1.50;99.90
41944;DHT22;27636;52.610;13.244;2023-12-07T15:53:25;1.60;99.90
41944;DHT22;27636;52.610;13.244;2023-12-07T15:58:30;1.60;99.90
41944;DHT22;27636;52.610;13.244;2023-12-07T16:03:35;1.60;99.90
41944;DHT22;27636;52.610;13.244;2023-12-07T16:08:39;1.60;99.90
41944;DHT22;27636;52.610;13.244;2023-12-07T16:13:45;1.60;99.90
41944;DHT22;27636;52.610;13.244;2023-12-07T16:18:49;1.60;99.90
41944;DHT22;27636;52.610;13.244;2023-12-07T16:23:53;1.60;99.90
41944;DHT22;27636;52.610;13.244;2023-12-07T16:28:59;1.60;99.90
41944;DHT22;27636;52.610;13.244;2023-12-07T16:34:03;1.50;99.90
41944;DHT22;27636;52.610;13.244;2023-12-07T16:39:08;1.50;99.90
41944;DHT22;27636;52.610;13.244;2023-12-07T16:44:14;1.50;99.90
41944;DHT22;27636;52.610;13.244;2023-12-07T16:49:18;1.50;99.90
41944;DHT22;27636;52.610;13.244;2023-12-07T16:54:23;1.60;99.90
41944;DHT22;27636;52.610;13.244;2023-12-07T16:59:29;1.60;99.90
41944;DHT22;27636;52.610;13.244;2023-12-07T17:04:34;1.60;99.90
41944;DHT22;27636;52.610;13.244;2023-12-07T17:09:38;1.60;99.90
41944;DHT22;27636;52.610;13.244;2023-12-07T17:14:45;1.60;99.90
41944;DHT22;27636;52.610;13.244;2023-12-07T17:19:49;1.60;99.90
41944;DHT22;27636;52.610;13.244;2023-12-07T17:24:54;1.60;99.90
41944;DHT22;27636;52.610;13.244;2023-12-07T17:29:59;1.70;99.90
41944;DHT22;27636;52.610;13.244;2023-12-07T17:35:04;1.70;99.90
41944;DHT22;27636;52.610;13.244;2023-12-07T17:40:09;1.70;99.90
41944;DHT22;27636;52.610;13.244;2023-12-07T17:45:14;1.70;99.90
41944;DHT22;27636;52.610;13.244;2023-12-07T17:50:18;1.70;99.90
41944;DHT22;27636;52.610;13.244;2023-12-07T17:55:23;1.70;99.90
41944;DHT22;27636;52.610;13.244;2023-12-07T18:00:28;1.70;99.90
41944;DHT22;27636;52.610;13.244;2023-12-07T18:05:31;1.70;99.90
41944;DHT22;27636;52.610;13.244;2023-12-07T18:10:36;1.70;99.90
41944;DHT22;27636;52.610;13.244;2023-12-07T18:15:41;1.70;99.90
41944;DHT22;27636;52.610;13.244;2023-12-07T18:20:46;1.70;99.90
41944;DHT22;27636;52.610;13.244;2023-12-07T18:25:49;1.70;99.90
41944;DHT22;27636;52.610;13.244;2023-12-07T18:30:55;1.60;99.90
41944;DHT22;27636;52.610;13.244;2023-12-07T18:35:58;1.60;99.90
41944;DHT22;27636;52.610;13.244;2023-12-07T18:41:02;1.60;99.90
41944;DHT22;27636;52.610;13.244;2023-12-07T18:46:08;1.70;99.90
41944;DHT22;27636;52.610;13.244;2023-12-07T18:51:13;1.70;99.90
41944;DHT22;27636;52.610;13.244;2023-12-07T18:56:17;1.70;99.90
41944;DHT22;27636;52.610;13.244;2023-12-07T19:01:30;1.70;99.90
41944;DHT22;27636;52.610;13.244;2023-12-07T19:06:34;1.70;99.90
41944;DHT22;27636;52.610;13.244;2023-12-07T19:11:38;1.70;99.90
41944;DHT22;27636;52.610;13.244;2023-12-07T19:16:44;1.80;99.90
41944;DHT22;27636;52.610;13.244;2023-12-07T19:21:48;1.70;99.90
41944;DHT22;27636;52.610;13.244;2023-12-07T19:26:53;1.70;99.90
41944;DHT22;27636;52.610;13.244;2023-12-07T19:31:59;1.70;99.90
41944;DHT22;27636;52.610;13.244;2023-12-07T19:37:03;1.70;99.90
41944;DHT22;27636;52.610;13.244;2023-12-07T19:42:07;1.70;99.90
41944;DHT22;27636;52.610;13.244;2023-12-07T19:47:13;1.60;99.90
41944;DHT22;27636;52.610;13.244;2023-12-07T19:52:17;1.60;99.90
41944;DHT22;27636;52.610;13.244;2023-12-07T19:57:21;1.60;99.90
41944;DHT22;27636;52.610;13.244;2023-12-07T20:02:26;1.60;99.90
41944;DHT22;27636;52.610;13.244;2023-12-07T20:07:30;1.60;99.90
41944;DHT22;27636;52.610;13.244;2023-12-07T20:12:34;1.60;99.90
41944;DHT22;27636;52.610;13.244;2023-12-07T20:17:40;1.50;99.90
41944;DHT22;27636;52.610;13.244;2023-12-07T20:22:45;1.50;99.90
41944;DHT22;27636;52.610;13.244;2023-12-07T20:27:50;1.50;99.90
41944;DHT22;27636;52.610;13.244;2023-12-07T20:32:55;1.40;99.90
41944;DHT22;27636;52.610;13.244;2023-12-07T20:38:00;1.30;99.90
41944;DHT22;27636;52.610;13.244;2023-12-07T20:43:04;1.30;99.90
41944;DHT22;27636;52.610;13.244;2023-12-07T20:48:10;1.20;99.90
41944;DHT22;27636;52.610;13.244;2023-12-07T20:53:14;1.10;99.90
41944;DHT22;27636;52.610;13.244;2023-12-07T20:58:20;1.00;99.90
41944;DHT22;27636;52.610;13.244;2023-12-07T21:03:26;0.90;99.90
41944;DHT22;27636;52.610;13.244;2023-12-07T21:08:30;0.70;99.90
41944;DHT22;27636;52.610;13.244;2023-12-07T21:13:35;0.50;99.90
41944;DHT22;27636;52.610;13.244;2023-12-07T21:18:41;0.40;99.90
41944;DHT22;27636;52.610;13.244;2023-12-07T21:23:45;0.20;99.90
41944;DHT22;27636;52.610;13.244;2023-12-07T21:28:50;0.30;99.90
41944;DHT22;27636;52.610;13.244;2023-12-07T21:33:55;0.40;99.90
41944;DHT22;27636;52.610;13.244;2023-12-07T21:39:00;0.40;99.90
41944;DHT22;27636;52.610;13.244;2023-12-07T21:44:05;0.50;99.90
41944;DHT22;27636;52.610;13.244;2023-12-07T21:49:10;0.70;99.90
41944;DHT22;27636;52.610;13.244;2023-12-07T21:54:14;0.60;99.90
41944;DHT22;27636;52.610;13.244;2023-12-07T21:59:18;0.70;99.90
41944;DHT22;27636;52.610;13.244;2023-12-07T22:04:23;0.80;99.90
41944;DHT22;27636;52.610;13.244;2023-12-07T22:09:27;0.80;99.90
41944;DHT22;27636;52.610;13.244;2023-12-07T22:14:31;0.90;99.90
41944;DHT22;27636;52.610;13.244;2023-12-07T22:19:37;1.00;99.90
41944;DHT22;27636;52.610;13.244;2023-12-07T22:24:40;1.00;99.90
41944;DHT22;27636;52.610;13.244;2023-12-07T22:29:44;1.00;99.90
41944;DHT22;27636;52.610;13.244;2023-12-07T22:34:50;1.10;99.90
41944;DHT22;27636;52.610;13.244;2023-12-07T22:39:54;1.20;99.90
41944;DHT22;27636;52.610;13.244;2023-12-07T22:44:58;1.30;99.90
41944;DHT22;27636;52.610;13.244;2023-12-07T22:50:05;1.30;99.90
41944;DHT22;27636;52.610;13.244;2023-12-07T22:55:09;1.30;99.90
41944;DHT22;27636;52.610;13.244;2023-12-07T23:00:13;1.30;99.90
41944;DHT22;27636;52.610;13.244;2023-12-07T23:05:25;1.60;99.90
41944;DHT22;27636;52.610;13.244;2023-12-07T23:10:29;1.60;99.90
41944;DHT22;27636;52.610;13.244;2023-12-07T23:15:33;1.60;99.90
41944;DHT22;27636;52.610;13.244;2023-12-07T23:20:39;1.50;99.90
41944;DHT22;27636;52.610;13.244;2023-12-07T23:25:44;1.60;99.90
41944;DHT22;27636;52.610;13.244;2023-12-07T23:30:48;1.60;99.90
41944;DHT22;27636;52.610;13.244;2023-12-07T23:35:53;1.50;99.90
41944;DHT22;27636;52.610;13.244;2023-12-07T23:40:58;1.50;99.90
41944;DHT22;27636;52.610;13.244;2023-12-07T23:46:01;1.70;99.90
41944;DHT22;27636;52.610;13.244;2023-12-07T23:51:09;1.80;99.90
41944;DHT22;27636;52.610;13.244;2023-12-07T23:56:18;1.80;99.90
